sensor_id;sensor_type;location;lat;lon;timestamp;pressure;altitude;pressure_sealevel;temperature
61977;BMP280;45905;50.570;10.428;2022-07-23T00:00:28;97910.06;;;22.04
61977;BMP280;45905;50.570;10.428;2022-07-23T00:03:04;97917.25;;;22.02
61977;BMP280;45905;50.570;10.428;2022-07-23T00:05:31;97920.25;;;21.99
61977;BMP280;45905;50.570;10.428;2022-07-23T00:08:01;97915.31;;;21.98
61977;BMP280;45905;50.570;10.428;2022-07-23T00:10:28;97914.22;;;21.94
61977;BMP280;45905;50.570;10.428;2022-07-23T00:12:55;97909.97;;;21.88
61977;BMP280;45905;50.570;10.428;2022-07-23T00:15:22;97909.38;;;21.86
61977;BMP280;45905;50.570;10.428;2022-07-23T00:17:50;97913.19;;;21.83
61977;BMP280;45905;50.570;10.428;2022-07-23T00:20:17;97917.78;;;21.81
61977;BMP280;45905;50.570;10.428;2022-07-23T00:22:50;97912.06;;;21.79
61977;BMP280;45905;50.570;10.428;2022-07-23T00:25:19;97907.94;;;21.79
61977;BMP280;45905;50.570;10.428;2022-07-23T00:27:58;97908.56;;;21.74
61977;BMP280;45905;50.570;10.428;2022-07-23T00:30:26;97914.16;;;21.71
61977;BMP280;45905;50.570;10.428;2022-07-23T00:32:57;97903.09;;;21.71
61977;BMP280;45905;50.570;10.428;2022-07-23T00:35:28;97899.59;;;21.65
61977;BMP280;45905;50.570;10.428;2022-07-23T00:37:57;97905.53;;;21.66
61977;BMP280;45905;50.570;10.428;2022-07-23T00:40:26;97898.81;;;21.65
61977;BMP280;45905;50.570;10.428;2022-07-23T00:42:54;97884.03;;;21.60
61977;BMP280;45905;50.570;10.428;2022-07-23T00:45:21;97895.56;;;21.47
61977;BMP280;45905;50.570;10.428;2022-07-23T00:47:49;97897.44;;;21.40
61977;BMP280;45905;50.570;10.428;2022-07-23T00:50:16;97901.03;;;21.39
61977;BMP280;45905;50.570;10.428;2022-07-23T00:52:45;97894.09;;;21.40
61977;BMP280;45905;50.570;10.428;2022-07-23T00:55:13;97895.09;;;21.39
61977;BMP280;45905;50.570;10.428;2022-07-23T00:57:41;97895.88;;;21.39
61977;BMP280;45905;50.570;10.428;2022-07-23T01:00:13;97901.59;;;21.41
61977;BMP280;45905;50.570;10.428;2022-07-23T01:02:41;97906.19;;;21.39
61977;BMP280;45905;50.570;10.428;2022-07-23T01:05:10;97891.72;;;21.38
61977;BMP280;45905;50.570;10.428;2022-07-23T01:07:38;97886.56;;;21.38
61977;BMP280;45905;50.570;10.428;2022-07-23T01:10:06;97866.41;;;21.35
61977;BMP280;45905;50.570;10.428;2022-07-23T01:12:55;97868.53;;;21.27
61977;BMP280;45905;50.570;10.428;2022-07-23T01:15:23;97872.66;;;21.28
61977;BMP280;45905;50.570;10.428;2022-07-23T01:17:50;97888.91;;;21.28
61977;BMP280;45905;50.570;10.428;2022-07-23T01:20:19;97891.47;;;21.28
61977;BMP280;45905;50.570;10.428;2022-07-23T01:22:46;97889.69;;;21.29
61977;BMP280;45905;50.570;10.428;2022-07-23T01:25:14;97885.53;;;21.28
61977;BMP280;45905;50.570;10.428;2022-07-23T01:27:52;97893.53;;;21.26
61977;BMP280;45905;50.570;10.428;2022-07-23T01:30:20;97882.06;;;21.22
61977;BMP280;45905;50.570;10.428;2022-07-23T01:32:47;97880.72;;;21.20
61977;BMP280;45905;50.570;10.428;2022-07-23T01:35:15;97868.34;;;21.11
61977;BMP280;45905;50.570;10.428;2022-07-23T01:37:42;97867.22;;;21.07
61977;BMP280;45905;50.570;10.428;2022-07-23T01:40:10;97854.13;;;21.08
61977;BMP280;45905;50.570;10.428;2022-07-23T01:42:38;97846.63;;;21.07
61977;BMP280;45905;50.570;10.428;2022-07-23T01:45:08;97860.50;;;21.06
61977;BMP280;45905;50.570;10.428;2022-07-23T01:47:38;97869.66;;;21.02
61977;BMP280;45905;50.570;10.428;2022-07-23T01:50:06;97884.41;;;20.95
61977;BMP280;45905;50.570;10.428;2022-07-23T01:52:52;97874.91;;;20.96
61977;BMP280;45905;50.570;10.428;2022-07-23T01:55:19;97845.59;;;20.97
61977;BMP280;45905;50.570;10.428;2022-07-23T01:57:49;97867.41;;;20.94
61977;BMP280;45905;50.570;10.428;2022-07-23T02:00:19;97879.28;;;20.95
61977;BMP280;45905;50.570;10.428;2022-07-23T02:02:50;97887.44;;;20.92
61977;BMP280;45905;50.570;10.428;2022-07-23T02:05:18;97892.81;;;20.91
61977;BMP280;45905;50.570;10.428;2022-07-23T02:07:45;97911.47;;;20.86
61977;BMP280;45905;50.570;10.428;2022-07-23T02:10:13;97921.50;;;20.77
61977;BMP280;45905;50.570;10.428;2022-07-23T02:12:40;97912.53;;;20.68
61977;BMP280;45905;50.570;10.428;2022-07-23T02:15:09;97911.91;;;20.55
61977;BMP280;45905;50.570;10.428;2022-07-23T02:17:39;97890.34;;;20.38
61977;BMP280;45905;50.570;10.428;2022-07-23T02:20:10;97882.09;;;20.30
61977;BMP280;45905;50.570;10.428;2022-07-23T02:22:38;97895.00;;;20.24
61977;BMP280;45905;50.570;10.428;2022-07-23T02:25:07;97896.66;;;20.18
61977;BMP280;45905;50.570;10.428;2022-07-23T02:27:36;97891.34;;;20.13
61977;BMP280;45905;50.570;10.428;2022-07-23T02:30:06;97886.28;;;20.07
61977;BMP280;45905;50.570;10.428;2022-07-23T02:32:34;97889.06;;;20.06
61977;BMP280;45905;50.570;10.428;2022-07-23T02:35:03;97887.88;;;20.08
61977;BMP280;45905;50.570;10.428;2022-07-23T02:37:31;97893.16;;;20.13
61977;BMP280;45905;50.570;10.428;2022-07-23T02:39:59;97902.22;;;20.15
61977;BMP280;45905;50.570;10.428;2022-07-23T02:42:26;97897.66;;;20.17
61977;BMP280;45905;50.570;10.428;2022-07-23T02:44:53;97886.94;;;20.20
61977;BMP280;45905;50.570;10.428;2022-07-23T02:47:20;97886.16;;;20.20
61977;BMP280;45905;50.570;10.428;2022-07-23T02:49:48;97879.44;;;20.19
61977;BMP280;45905;50.570;10.428;2022-07-23T02:52:15;97881.81;;;20.20
61977;BMP280;45905;50.570;10.428;2022-07-23T02:54:43;97890.53;;;20.19
61977;BMP280;45905;50.570;10.428;2022-07-23T02:57:13;97896.25;;;20.21
61977;BMP280;45905;50.570;10.428;2022-07-23T02:59:41;97903.16;;;20.21
61977;BMP280;45905;50.570;10.428;2022-07-23T03:02:09;97871.56;;;20.14
61977;BMP280;45905;50.570;10.428;2022-07-23T03:04:37;97855.22;;;20.08
61977;BMP280;45905;50.570;10.428;2022-07-23T03:07:04;97847.59;;;20.02
61977;BMP280;45905;50.570;10.428;2022-07-23T03:09:32;97839.31;;;20.00
61977;BMP280;45905;50.570;10.428;2022-07-23T03:11:59;97834.72;;;20.02
61977;BMP280;45905;50.570;10.428;2022-07-23T03:14:26;97836.72;;;20.00
61977;BMP280;45905;50.570;10.428;2022-07-23T03:16:55;97844.03;;;20.03
61977;BMP280;45905;50.570;10.428;2022-07-23T03:19:22;97842.66;;;20.01
61977;BMP280;45905;50.570;10.428;2022-07-23T03:21:50;97847.59;;;20.02
61977;BMP280;45905;50.570;10.428;2022-07-23T03:24:17;97853.31;;;20.04
61977;BMP280;45905;50.570;10.428;2022-07-23T03:26:44;97867.72;;;20.05
61977;BMP280;45905;50.570;10.428;2022-07-23T03:29:12;97892.63;;;20.05
61977;BMP280;45905;50.570;10.428;2022-07-23T03:31:39;97917.50;;;19.93
61977;BMP280;45905;50.570;10.428;2022-07-23T03:34:07;97925.75;;;19.77
61977;BMP280;45905;50.570;10.428;2022-07-23T03:36:34;97952.66;;;19.75
61977;BMP280;45905;50.570;10.428;2022-07-23T03:39:04;97926.03;;;19.69
61977;BMP280;45905;50.570;10.428;2022-07-23T03:41:31;97890.59;;;19.71
61977;BMP280;45905;50.570;10.428;2022-07-23T03:43:59;97840.63;;;19.68
61977;BMP280;45905;50.570;10.428;2022-07-23T03:46:26;97808.81;;;19.68
61977;BMP280;45905;50.570;10.428;2022-07-23T03:48:54;97812.72;;;19.71
61977;BMP280;45905;50.570;10.428;2022-07-23T03:51:25;97851.84;;;19.73
61977;BMP280;45905;50.570;10.428;2022-07-23T03:53:52;97853.13;;;19.64
61977;BMP280;45905;50.570;10.428;2022-07-23T03:56:19;97850.41;;;19.53
61977;BMP280;45905;50.570;10.428;2022-07-23T03:58:47;97863.50;;;19.51
61977;BMP280;45905;50.570;10.428;2022-07-23T04:01:14;97874.97;;;19.49
61977;BMP280;45905;50.570;10.428;2022-07-23T04:03:43;97869.66;;;19.44
61977;BMP280;45905;50.570;10.428;2022-07-23T04:06:11;97874.38;;;19.47
61977;BMP280;45905;50.570;10.428;2022-07-23T04:08:38;97877.88;;;19.52
61977;BMP280;45905;50.570;10.428;2022-07-23T04:11:05;97890.72;;;19.59
61977;BMP280;45905;50.570;10.428;2022-07-23T04:13:33;97885.53;;;19.65
61977;BMP280;45905;50.570;10.428;2022-07-23T04:16:02;97880.78;;;19.62
61977;BMP280;45905;50.570;10.428;2022-07-23T04:18:30;97900.44;;;19.57
61977;BMP280;45905;50.570;10.428;2022-07-23T04:21:06;97890.72;;;19.59
61977;BMP280;45905;50.570;10.428;2022-07-23T04:23:34;97893.09;;;19.60
61977;BMP280;45905;50.570;10.428;2022-07-23T04:26:01;97895.88;;;19.59
61977;BMP280;45905;50.570;10.428;2022-07-23T04:28:30;97890.72;;;19.59
61977;BMP280;45905;50.570;10.428;2022-07-23T04:30:58;97902.59;;;19.60
61977;BMP280;45905;50.570;10.428;2022-07-23T04:33:26;97901.00;;;19.59
61977;BMP280;45905;50.570;10.428;2022-07-23T04:35:56;97906.16;;;19.52
61977;BMP280;45905;50.570;10.428;2022-07-23T04:38:23;97913.31;;;19.50
61977;BMP280;45905;50.570;10.428;2022-07-23T04:40:54;97918.00;;;19.53
61977;BMP280;45905;50.570;10.428;2022-07-23T04:43:21;97909.72;;;19.58
61977;BMP280;45905;50.570;10.428;2022-07-23T04:45:50;97909.31;;;19.61
61977;BMP280;45905;50.570;10.428;2022-07-23T04:48:18;97913.22;;;19.63
61977;BMP280;45905;50.570;10.428;2022-07-23T04:50:50;97911.44;;;19.64
61977;BMP280;45905;50.570;10.428;2022-07-23T04:53:22;97907.28;;;19.63
61977;BMP280;45905;50.570;10.428;2022-07-23T04:55:52;97909.31;;;19.61
61977;BMP280;45905;50.570;10.428;2022-07-23T04:58:20;97918.78;;;19.54
61977;BMP280;45905;50.570;10.428;2022-07-23T05:00:47;97922.16;;;19.54
61977;BMP280;45905;50.570;10.428;2022-07-23T05:03:16;97920.38;;;19.55
61977;BMP280;45905;50.570;10.428;2022-07-23T05:05:46;97927.13;;;19.56
61977;BMP280;45905;50.570;10.428;2022-07-23T05:08:16;97930.84;;;19.53
61977;BMP280;45905;50.570;10.428;2022-07-23T05:10:49;97942.91;;;19.53
61977;BMP280;45905;50.570;10.428;2022-07-23T05:13:18;97941.53;;;19.57
61977;BMP280;45905;50.570;10.428;2022-07-23T05:15:46;97940.13;;;19.61
61977;BMP280;45905;50.570;10.428;2022-07-23T05:18:14;97945.03;;;19.62
61977;BMP280;45905;50.570;10.428;2022-07-23T05:20:41;97944.25;;;19.62
61977;BMP280;45905;50.570;10.428;2022-07-23T05:23:12;97947.25;;;19.59
61977;BMP280;45905;50.570;10.428;2022-07-23T05:25:40;97952.00;;;19.55
61977;BMP280;45905;50.570;10.428;2022-07-23T05:28:08;97953.41;;;19.51
61977;BMP280;45905;50.570;10.428;2022-07-23T05:30:35;97955.47;;;19.43
61977;BMP280;45905;50.570;10.428;2022-07-23T05:33:06;97949.16;;;19.39
61977;BMP280;45905;50.570;10.428;2022-07-23T05:35:34;97942.03;;;19.35
61977;BMP280;45905;50.570;10.428;2022-07-23T05:38:19;97937.34;;;19.32
61977;BMP280;45905;50.570;10.428;2022-07-23T05:40:48;97925.69;;;19.29
61977;BMP280;45905;50.570;10.428;2022-07-23T05:43:15;97935.19;;;19.29
61977;BMP280;45905;50.570;10.428;2022-07-23T05:45:42;97939.53;;;19.29
61977;BMP280;45905;50.570;10.428;2022-07-23T05:48:10;97935.19;;;19.29
61977;BMP280;45905;50.570;10.428;2022-07-23T05:50:47;97947.81;;;19.30
61977;BMP280;45905;50.570;10.428;2022-07-23T05:53:28;97951.34;;;19.36
61977;BMP280;45905;50.570;10.428;2022-07-23T05:56:06;97954.88;;;19.35
61977;BMP280;45905;50.570;10.428;2022-07-23T05:58:35;97966.53;;;19.37
61977;BMP280;45905;50.570;10.428;2022-07-23T06:01:02;97968.50;;;19.42
61977;BMP280;45905;50.570;10.428;2022-07-23T06:03:38;97977.03;;;19.36
61977;BMP280;45905;50.570;10.428;2022-07-23T06:06:06;97983.00;;;19.30
61977;BMP280;45905;50.570;10.428;2022-07-23T06:08:33;97975.94;;;19.26
61977;BMP280;45905;50.570;10.428;2022-07-23T06:11:01;97986.59;;;19.23
61977;BMP280;45905;50.570;10.428;2022-07-23T06:13:28;97986.59;;;19.23
61977;BMP280;45905;50.570;10.428;2022-07-23T06:15:55;97994.66;;;19.26
61977;BMP280;45905;50.570;10.428;2022-07-23T06:18:22;97997.47;;;19.25
61977;BMP280;45905;50.570;10.428;2022-07-23T06:20:50;98007.31;;;19.28
61977;BMP280;45905;50.570;10.428;2022-07-23T06:23:24;98000.97;;;19.30
61977;BMP280;45905;50.570;10.428;2022-07-23T06:25:52;97995.63;;;19.31
61977;BMP280;45905;50.570;10.428;2022-07-23T06:28:20;98002.16;;;19.34
61977;BMP280;45905;50.570;10.428;2022-07-23T06:30:47;98007.06;;;19.35
61977;BMP280;45905;50.570;10.428;2022-07-23T06:33:15;97999.16;;;19.37
61977;BMP280;45905;50.570;10.428;2022-07-23T06:35:43;97989.47;;;19.39
61977;BMP280;45905;50.570;10.428;2022-07-23T06:38:10;98003.47;;;19.43
61977;BMP280;45905;50.570;10.428;2022-07-23T06:40:38;98009.41;;;19.43
61977;BMP280;45905;50.570;10.428;2022-07-23T06:43:05;98011.75;;;19.45
61977;BMP280;45905;50.570;10.428;2022-07-23T06:45:36;98014.69;;;19.48
61977;BMP280;45905;50.570;10.428;2022-07-23T06:48:03;98020.78;;;19.53
61977;BMP280;45905;50.570;10.428;2022-07-23T06:50:31;98030.84;;;19.55
61977;BMP280;45905;50.570;10.428;2022-07-23T06:52:58;98024.94;;;19.61
61977;BMP280;45905;50.570;10.428;2022-07-23T06:55:25;98019.53;;;19.68
61977;BMP280;45905;50.570;10.428;2022-07-23T06:57:52;98023.06;;;19.74
61977;BMP280;45905;50.570;10.428;2022-07-23T07:00:20;98004.44;;;19.78
61977;BMP280;45905;50.570;10.428;2022-07-23T07:02:48;98017.66;;;19.82
61977;BMP280;45905;50.570;10.428;2022-07-23T07:05:15;98004.00;;;19.81
61977;BMP280;45905;50.570;10.428;2022-07-23T07:07:42;98010.94;;;19.81
61977;BMP280;45905;50.570;10.428;2022-07-23T07:10:09;98008.38;;;19.81
61977;BMP280;45905;50.570;10.428;2022-07-23T07:12:42;98018.22;;;19.84
61977;BMP280;45905;50.570;10.428;2022-07-23T07:15:09;98023.31;;;19.90
61977;BMP280;45905;50.570;10.428;2022-07-23T07:17:37;98020.91;;;19.95
61977;BMP280;45905;50.570;10.428;2022-07-23T07:20:05;98023.22;;;20.03
61977;BMP280;45905;50.570;10.428;2022-07-23T07:22:32;98023.78;;;20.05
61977;BMP280;45905;50.570;10.428;2022-07-23T07:25:00;98022.00;;;20.05
61977;BMP280;45905;50.570;10.428;2022-07-23T07:27:27;98038.59;;;20.09
61977;BMP280;45905;50.570;10.428;2022-07-23T07:29:54;98045.25;;;20.16
61977;BMP280;45905;50.570;10.428;2022-07-23T07:32:22;98049.81;;;20.14
61977;BMP280;45905;50.570;10.428;2022-07-23T07:35:09;98058.69;;;20.18
61977;BMP280;45905;50.570;10.428;2022-07-23T07:37:37;98043.84;;;20.20
61977;BMP280;45905;50.570;10.428;2022-07-23T07:40:04;98043.19;;;20.25
61977;BMP280;45905;50.570;10.428;2022-07-23T07:42:32;98045.16;;;20.29
61977;BMP280;45905;50.570;10.428;2022-07-23T07:44:59;98053.00;;;20.34
61977;BMP280;45905;50.570;10.428;2022-07-23T07:47:26;98064.72;;;20.36
61977;BMP280;45905;50.570;10.428;2022-07-23T07:49:54;98066.50;;;20.36
61977;BMP280;45905;50.570;10.428;2022-07-23T07:52:21;98073.38;;;20.35
61977;BMP280;45905;50.570;10.428;2022-07-23T07:54:48;98074.78;;;20.38
61977;BMP280;45905;50.570;10.428;2022-07-23T07:57:15;98074.00;;;20.37
61977;BMP280;45905;50.570;10.428;2022-07-23T07:59:43;98083.31;;;20.38
61977;BMP280;45905;50.570;10.428;2022-07-23T08:02:11;98075.97;;;20.35
61977;BMP280;45905;50.570;10.428;2022-07-23T08:04:38;98079.75;;;20.33
61977;BMP280;45905;50.570;10.428;2022-07-23T08:07:06;98084.75;;;20.28
61977;BMP280;45905;50.570;10.428;2022-07-23T08:09:33;98096.28;;;20.19
61977;BMP280;45905;50.570;10.428;2022-07-23T08:12:00;98084.41;;;20.18
61977;BMP280;45905;50.570;10.428;2022-07-23T08:14:27;98091.56;;;20.16
61977;BMP280;45905;50.570;10.428;2022-07-23T08:16:54;98089.81;;;20.10
61977;BMP280;45905;50.570;10.428;2022-07-23T08:19:40;98093.81;;;20.06
61977;BMP280;45905;50.570;10.428;2022-07-23T08:22:07;98090.03;;;20.09
61977;BMP280;45905;50.570;10.428;2022-07-23T08:24:34;98101.84;;;20.16
61977;BMP280;45905;50.570;10.428;2022-07-23T08:27:01;98109.19;;;20.13
61977;BMP280;45905;50.570;10.428;2022-07-23T08:29:29;98112.13;;;20.16
61977;BMP280;45905;50.570;10.428;2022-07-23T08:31:57;98113.66;;;20.24
61977;BMP280;45905;50.570;10.428;2022-07-23T08:34:24;98103.88;;;20.32
61977;BMP280;45905;50.570;10.428;2022-07-23T08:36:51;98098.50;;;20.40
61977;BMP280;45905;50.570;10.428;2022-07-23T08:39:18;98099.25;;;20.46
61977;BMP280;45905;50.570;10.428;2022-07-23T08:41:46;98106.13;;;20.52
61977;BMP280;45905;50.570;10.428;2022-07-23T08:44:16;98104.72;;;20.56
61977;BMP280;45905;50.570;10.428;2022-07-23T08:46:44;98119.88;;;20.64
61977;BMP280;45905;50.570;10.428;2022-07-23T08:49:12;98123.00;;;20.66
61977;BMP280;45905;50.570;10.428;2022-07-23T08:51:41;98128.31;;;20.71
61977;BMP280;45905;50.570;10.428;2022-07-23T08:54:08;98119.16;;;20.75
61977;BMP280;45905;50.570;10.428;2022-07-23T08:56:35;98112.47;;;20.74
61977;BMP280;45905;50.570;10.428;2022-07-23T08:59:03;98125.88;;;20.76
61977;BMP280;45905;50.570;10.428;2022-07-23T09:01:30;98136.94;;;20.83
61977;BMP280;45905;50.570;10.428;2022-07-23T09:03:57;98123.63;;;20.85
61977;BMP280;45905;50.570;10.428;2022-07-23T09:06:25;98129.75;;;20.84
61977;BMP280;45905;50.570;10.428;2022-07-23T09:08:52;98127.34;;;20.89
61977;BMP280;45905;50.570;10.428;2022-07-23T09:11:19;98131.31;;;20.92
61977;BMP280;45905;50.570;10.428;2022-07-23T09:13:49;98128.06;;;20.96
61977;BMP280;45905;50.570;10.428;2022-07-23T09:16:27;98135.94;;;21.01
61977;BMP280;45905;50.570;10.428;2022-07-23T09:19:02;98133.94;;;21.03
61977;BMP280;45905;50.570;10.428;2022-07-23T09:21:33;98129.34;;;21.05
61977;BMP280;45905;50.570;10.428;2022-07-23T09:24:12;98131.50;;;21.08
61977;BMP280;45905;50.570;10.428;2022-07-23T09:26:47;98139.56;;;21.18
61977;BMP280;45905;50.570;10.428;2022-07-23T09:29:25;98138.69;;;21.23
61977;BMP280;45905;50.570;10.428;2022-07-23T09:31:55;98134.03;;;21.32
61977;BMP280;45905;50.570;10.428;2022-07-23T09:34:24;98137.31;;;21.39
61977;BMP280;45905;50.570;10.428;2022-07-23T09:36:58;98132.53;;;21.42
61977;BMP280;45905;50.570;10.428;2022-07-23T09:39:35;98134.66;;;21.45
61977;BMP280;45905;50.570;10.428;2022-07-23T09:42:32;98137.81;;;21.47
61977;BMP280;45905;50.570;10.428;2022-07-23T09:45:00;98140.41;;;21.47
61977;BMP280;45905;50.570;10.428;2022-07-23T09:47:32;98142.53;;;21.50
61977;BMP280;45905;50.570;10.428;2022-07-23T09:50:09;98145.50;;;21.53
61977;BMP280;45905;50.570;10.428;2022-07-23T09:52:48;98142.53;;;21.50
61977;BMP280;45905;50.570;10.428;2022-07-23T09:55:18;98145.69;;;21.52
61977;BMP280;45905;50.570;10.428;2022-07-23T09:57:46;98147.03;;;21.54
61977;BMP280;45905;50.570;10.428;2022-07-23T10:00:23;98145.69;;;21.52
61977;BMP280;45905;50.570;10.428;2022-07-23T10:02:52;98145.91;;;21.50
61977;BMP280;45905;50.570;10.428;2022-07-23T10:05:29;98150.41;;;21.55
61977;BMP280;45905;50.570;10.428;2022-07-23T10:08:12;98155.13;;;21.58
61977;BMP280;45905;50.570;10.428;2022-07-23T10:10:41;98166.16;;;21.64
61977;BMP280;45905;50.570;10.428;2022-07-23T10:13:38;98163.00;;;21.62
61977;BMP280;45905;50.570;10.428;2022-07-23T10:16:25;98157.84;;;21.62
61977;BMP280;45905;50.570;10.428;2022-07-23T10:18:54;98153.03;;;21.66
61977;BMP280;45905;50.570;10.428;2022-07-23T10:21:36;98164.78;;;21.79
61977;BMP280;45905;50.570;10.428;2022-07-23T10:35:56;98179.16;;;22.16
61977;BMP280;45905;50.570;10.428;2022-07-23T10:38:37;98170.72;;;22.09
61977;BMP280;45905;50.570;10.428;2022-07-23T10:41:07;98173.00;;;22.05
61977;BMP280;45905;50.570;10.428;2022-07-23T10:43:34;98180.84;;;22.10
61977;BMP280;45905;50.570;10.428;2022-07-23T10:46:25;98180.53;;;22.18
61977;BMP280;45905;50.570;10.428;2022-07-23T10:49:31;98168.56;;;22.23
61977;BMP280;45905;50.570;10.428;2022-07-23T10:54:55;98164.88;;;22.31
61977;BMP280;45905;50.570;10.428;2022-07-23T10:57:25;98169.56;;;22.34
61977;BMP280;45905;50.570;10.428;2022-07-23T11:02:44;98166.66;;;22.41
61977;BMP280;45905;50.570;10.428;2022-07-23T11:05:22;98159.84;;;22.47
61977;BMP280;45905;50.570;10.428;2022-07-23T11:16:21;98159.88;;;22.58
61977;BMP280;45905;50.570;10.428;2022-07-23T11:24:08;98164.50;;;22.78
61977;BMP280;45905;50.570;10.428;2022-07-23T11:26:57;98160.34;;;22.89
61977;BMP280;45905;50.570;10.428;2022-07-23T11:34:42;98148.41;;;23.21
61977;BMP280;45905;50.570;10.428;2022-07-23T11:37:39;98150.22;;;23.32
61977;BMP280;45905;50.570;10.428;2022-07-23T11:40:14;98140.63;;;23.44
61977;BMP280;45905;50.570;10.428;2022-07-23T11:43:04;98130.22;;;23.66
61977;BMP280;45905;50.570;10.428;2022-07-23T11:45:41;98134.09;;;23.80
61977;BMP280;45905;50.570;10.428;2022-07-23T11:48:17;98130.72;;;23.79
61977;BMP280;45905;50.570;10.428;2022-07-23T11:50:46;98129.13;;;23.90
61977;BMP280;45905;50.570;10.428;2022-07-23T11:53:33;98126.53;;;23.90
61977;BMP280;45905;50.570;10.428;2022-07-23T11:56:09;98125.94;;;23.99
61977;BMP280;45905;50.570;10.428;2022-07-23T11:58:38;98133.75;;;24.15
61977;BMP280;45905;50.570;10.428;2022-07-23T12:01:06;98115.31;;;24.28
61977;BMP280;45905;50.570;10.428;2022-07-23T12:03:50;98120.63;;;24.37
61977;BMP280;45905;50.570;10.428;2022-07-23T12:06:18;98100.41;;;24.50
61977;BMP280;45905;50.570;10.428;2022-07-23T12:08:45;98105.03;;;24.65
61977;BMP280;45905;50.570;10.428;2022-07-23T12:11:13;98101.72;;;24.85
61977;BMP280;45905;50.570;10.428;2022-07-23T12:13:40;98103.50;;;25.01
61977;BMP280;45905;50.570;10.428;2022-07-23T12:16:08;98092.88;;;25.23
61977;BMP280;45905;50.570;10.428;2022-07-23T12:21:06;98088.97;;;25.63
61977;BMP280;45905;50.570;10.428;2022-07-23T12:23:34;98091.34;;;25.69
61977;BMP280;45905;50.570;10.428;2022-07-23T12:26:05;98079.63;;;25.62
61977;BMP280;45905;50.570;10.428;2022-07-23T12:28:34;98071.03;;;25.61
61977;BMP280;45905;50.570;10.428;2022-07-23T12:31:05;98071.25;;;25.81
61977;BMP280;45905;50.570;10.428;2022-07-23T12:33:39;98077.13;;;25.97
61977;BMP280;45905;50.570;10.428;2022-07-23T12:36:09;98072.31;;;26.10
61977;BMP280;45905;50.570;10.428;2022-07-23T12:38:49;98069.00;;;26.20
61977;BMP280;45905;50.570;10.428;2022-07-23T12:41:17;98061.53;;;26.28
61977;BMP280;45905;50.570;10.428;2022-07-23T12:43:46;98067.53;;;26.28
61977;BMP280;45905;50.570;10.428;2022-07-23T12:46:19;98076.47;;;26.42
61977;BMP280;45905;50.570;10.428;2022-07-23T12:51:29;98074.63;;;26.73
61977;BMP280;45905;50.570;10.428;2022-07-23T12:54:10;98071.00;;;26.74
61977;BMP280;45905;50.570;10.428;2022-07-23T12:56:40;98062.41;;;26.74
61977;BMP280;45905;50.570;10.428;2022-07-23T12:59:16;98073.59;;;26.79
61977;BMP280;45905;50.570;10.428;2022-07-23T13:01:56;98071.06;;;26.89
61977;BMP280;45905;50.570;10.428;2022-07-23T13:04:26;98076.06;;;27.00
61977;BMP280;45905;50.570;10.428;2022-07-23T13:06:57;98081.34;;;27.10
61977;BMP280;45905;50.570;10.428;2022-07-23T13:09:29;98071.78;;;27.20
61977;BMP280;45905;50.570;10.428;2022-07-23T13:11:59;98071.25;;;27.18
61977;BMP280;45905;50.570;10.428;2022-07-23T13:14:28;98067.91;;;27.27
61977;BMP280;45905;50.570;10.428;2022-07-23T13:16:56;98068.47;;;27.39
61977;BMP280;45905;50.570;10.428;2022-07-23T13:19:25;98073.97;;;27.57
61977;BMP280;45905;50.570;10.428;2022-07-23T13:21:54;98064.66;;;27.71
61977;BMP280;45905;50.570;10.428;2022-07-23T13:24:21;98063.09;;;27.70
61977;BMP280;45905;50.570;10.428;2022-07-23T13:26:48;98062.56;;;27.68
61977;BMP280;45905;50.570;10.428;2022-07-23T13:29:19;98074.28;;;27.70
61977;BMP280;45905;50.570;10.428;2022-07-23T13:31:46;98071.69;;;27.75
61977;BMP280;45905;50.570;10.428;2022-07-23T13:34:15;98073.03;;;27.82
61977;BMP280;45905;50.570;10.428;2022-07-23T13:36:42;98060.03;;;27.92
61977;BMP280;45905;50.570;10.428;2022-07-23T13:39:11;98068.09;;;27.91
61977;BMP280;45905;50.570;10.428;2022-07-23T13:41:38;98063.66;;;27.96
61977;BMP280;45905;50.570;10.428;2022-07-23T13:44:15;98051.16;;;28.08
61977;BMP280;45905;50.570;10.428;2022-07-23T13:46:42;98050.16;;;28.23
61977;BMP280;45905;50.570;10.428;2022-07-23T13:49:09;98052.22;;;28.31
61977;BMP280;45905;50.570;10.428;2022-07-23T13:51:37;98059.00;;;28.32
61977;BMP280;45905;50.570;10.428;2022-07-23T13:54:04;98059.50;;;28.29
61977;BMP280;45905;50.570;10.428;2022-07-23T13:56:35;98057.44;;;28.36
61977;BMP280;45905;50.570;10.428;2022-07-23T13:59:03;98053.25;;;28.50
61977;BMP280;45905;50.570;10.428;2022-07-23T14:01:33;98049.81;;;28.69
61977;BMP280;45905;50.570;10.428;2022-07-23T14:04:16;98058.66;;;28.87
61977;BMP280;45905;50.570;10.428;2022-07-23T14:06:44;98044.34;;;28.80
61977;BMP280;45905;50.570;10.428;2022-07-23T14:09:18;98040.16;;;28.84
61977;BMP280;45905;50.570;10.428;2022-07-23T14:11:46;98043.78;;;28.92
61977;BMP280;45905;50.570;10.428;2022-07-23T14:14:13;98036.69;;;29.03
61977;BMP280;45905;50.570;10.428;2022-07-23T14:16:41;98038.00;;;29.05
61977;BMP280;45905;50.570;10.428;2022-07-23T14:19:09;98055.72;;;29.08
61977;BMP280;45905;50.570;10.428;2022-07-23T14:21:36;98055.44;;;29.10
61977;BMP280;45905;50.570;10.428;2022-07-23T14:24:05;98045.75;;;29.20
61977;BMP280;45905;50.570;10.428;2022-07-23T14:26:32;98055.88;;;29.31
61977;BMP280;45905;50.570;10.428;2022-07-23T14:28:59;98053.84;;;29.23
61977;BMP280;45905;50.570;10.428;2022-07-23T14:31:28;98054.63;;;29.24
61977;BMP280;45905;50.570;10.428;2022-07-23T14:33:55;98047.53;;;29.39
61977;BMP280;45905;50.570;10.428;2022-07-23T14:36:22;98053.19;;;29.50
61977;BMP280;45905;50.570;10.428;2022-07-23T14:38:50;98053.97;;;29.56
61977;BMP280;45905;50.570;10.428;2022-07-23T14:41:18;98040.84;;;29.61
61977;BMP280;45905;50.570;10.428;2022-07-23T14:43:53;98044.50;;;29.65
61977;BMP280;45905;50.570;10.428;2022-07-23T14:46:20;98045.19;;;29.80
61977;BMP280;45905;50.570;10.428;2022-07-23T14:48:47;98039.56;;;30.01
61977;BMP280;45905;50.570;10.428;2022-07-23T14:51:14;98039.38;;;30.25
61977;BMP280;45905;50.570;10.428;2022-07-23T14:53:42;98046.06;;;30.36